Time;durP1;ratioP1;P1;durP2;ratioP2;P2;SDS_P1;SDS_P2;PMS_P1;PMS_P2;Temp;Humidity;BMP_temperature;BMP_pressure;BME280_temperature;BME280_humidity;BME280_pressure;Samples;Min_cycle;Max_cycle;Signal;HPM_P1;HPM_P2
2022/06/08 00:02:01;;;;;;;316.33;299.03;;;;;;;15.18;100.00;96469.03;5067275;28;20189;-70
2022/06/08 00:04:26;;;;;;;290.00;274.50;;;;;;;15.17;100.00;96469.28;5073126;28;20177;-70
2022/06/08 00:06:52;;;;;;;221.70;210.10;;;;;;;15.16;100.00;96472.97;5074064;28;20550;-69
2022/06/08 00:09:19;;;;;;;206.43;195.77;;;;;;;15.15;100.00;96472.22;5075112;28;20314;-70
2022/06/08 00:11:44;;;;;;;226.40;214.67;;;;;;;15.13;100.00;96471.69;5074473;28;20197;-69
2022/06/08 00:14:11;;;;;;;247.10;234.20;;;;;;;14.98;100.00;96469.81;5074211;28;20173;-70
2022/06/08 00:16:36;;;;;;;214.03;202.73;;;;;;;15.10;100.00;96466.13;5074572;28;20225;-69
2022/06/08 00:19:02;;;;;;;279.97;265.73;;;;;;;15.07;100.00;96456.88;5074818;28;20280;-70
2022/06/08 00:21:28;;;;;;;351.00;332.43;;;;;;;15.12;100.00;96467.44;5074342;28;20200;-70
2022/06/08 00:23:54;;;;;;;347.93;329.40;;;;;;;15.19;100.00;96461.91;5074649;28;20182;-70
2022/06/08 00:26:19;;;;;;;299.83;283.87;;;;;;;15.21;100.00;96460.56;5074304;28;20193;-70
2022/06/08 00:28:45;;;;;;;299.80;284.00;;;;;;;15.31;100.00;96457.16;5074207;28;20691;-70
2022/06/08 00:31:11;;;;;;;295.50;279.77;;;;;;;15.05;100.00;96453.72;5056367;28;20228;-70
2022/06/08 00:33:36;;;;;;;284.17;269.30;;;;;;;15.12;100.00;96453.44;5070140;28;20231;-70
2022/06/08 00:36:01;;;;;;;265.53;251.80;;;;;;;15.16;100.00;96449.22;5073997;28;20216;-70
2022/06/08 00:38:27;;;;;;;267.27;253.33;;;;;;;15.14;100.00;96446.06;5073666;28;20236;-70
2022/06/08 00:41:01;;;;;;;300.27;284.43;;;;;;;15.15;100.00;96448.47;5074240;28;20189;-70
2022/06/08 00:43:27;;;;;;;295.87;280.10;;;;;;;15.17;100.00;96440.25;5074126;28;20189;-70
2022/06/08 00:45:53;;;;;;;300.53;284.63;;;;;;;15.14;100.00;96441.59;5073914;28;20236;-70
2022/06/08 00:48:19;;;;;;;286.00;271.07;;;;;;;15.17;100.00;96433.13;5073305;28;20246;-69
2022/06/08 00:50:50;;;;;;;295.63;279.97;;;;;;;15.14;100.00;96427.59;5073883;28;20181;-70
2022/06/08 00:53:18;;;;;;;295.57;279.90;;;;;;;15.32;100.00;96435.00;5073442;28;20205;-69
2022/06/08 00:55:45;;;;;;;344.33;325.77;;;;;;;15.32;100.00;96437.63;5071610;28;20280;-70
2022/06/08 00:58:23;;;;;;;333.03;315.23;;;;;;;15.16;100.00;96441.31;5073509;28;20588;-69
2022/06/08 01:00:50;;;;;;;323.87;306.13;;;;;;;15.04;100.00;96449.50;5073609;28;20260;-70
2022/06/08 01:03:16;;;;;;;336.20;318.10;;;;;;;15.21;100.00;96442.09;5073206;28;20238;-70
2022/06/08 01:05:50;;;;;;;344.93;326.50;;;;;;;15.01;100.00;96436.81;5073252;28;20662;-69
2022/06/08 01:08:23;;;;;;;330.57;312.63;;;;;;;15.01;100.00;96434.19;5073381;28;20188;-69
2022/06/08 01:10:55;;;;;;;321.60;304.10;;;;;;;15.01;100.00;96439.47;5073471;28;20268;-69
2022/06/08 01:13:21;;;;;;;302.07;285.87;;;;;;;15.00;100.00;96432.59;5073145;28;20238;-69
2022/06/08 01:15:48;;;;;;;316.53;299.80;;;;;;;15.12;100.00;96432.34;5055047;28;20560;-69
2022/06/08 01:18:13;;;;;;;309.27;292.53;;;;;;;15.04;100.00;96432.88;5073118;28;20211;-69
2022/06/08 01:20:53;;;;;;;323.50;306.50;;;;;;;15.22;100.00;96432.34;5073226;28;20217;-69
2022/06/08 01:23:19;;;;;;;314.33;297.47;;;;;;;14.85;100.00;96428.09;5072723;28;20169;-69
2022/06/08 01:25:57;;;;;;;334.60;316.23;;;;;;;15.05;100.00;96421.22;5073045;28;20234;-69
2022/06/08 01:28:43;;;;;;;334.57;315.87;;;;;;;14.96;100.00;96420.97;5072835;28;20649;-69
2022/06/08 01:31:27;;;;;;;321.77;303.87;;;;;;;14.82;100.00;96420.69;5055175;28;20572;-70
2022/06/08 01:34:14;;;;;;;348.57;328.90;;;;;;;14.91;100.00;96418.34;5066647;28;20302;-69
2022/06/08 01:37:12;;;;;;;341.20;321.97;;;;;;;14.85;100.00;96412.25;5072796;28;20195;-68
2022/06/08 01:40:09;;;;;;;314.80;297.30;;;;;;;14.81;100.00;96418.34;5071874;28;20657;-70
2022/06/08 01:42:53;;;;;;;327.23;309.27;;;;;;;14.61;100.00;96410.38;5072946;28;20180;-70
2022/06/08 01:45:43;;;;;;;314.37;296.83;;;;;;;14.81;100.00;96403.28;5072767;28;20203;-70
2022/06/08 01:48:34;;;;;;;305.80;289.17;;;;;;;14.62;100.00;96404.84;5071416;28;20209;-70
2022/06/08 01:51:20;;;;;;;249.37;236.30;;;;;;;14.61;100.00;96403.25;5072186;28;20318;-70
2022/06/08 01:53:51;;;;;;;167.13;158.47;;;;;;;14.52;100.00;96395.06;5072166;28;20756;-69
2022/06/08 01:56:32;;;;;;;164.97;156.17;;;;;;;14.55;100.00;96399.81;5058907;28;20230;-70
2022/06/08 01:59:23;;;;;;;167.67;158.97;;;;;;;14.47;100.00;96392.41;5072783;28;20197;-70
2022/06/08 02:01:57;;;;;;;158.57;150.33;;;;;;;14.46;100.00;96396.09;5072667;28;20180;-70
2022/06/08 02:04:35;;;;;;;173.10;164.07;;;;;;;14.35;100.00;96396.31;5072527;28;20192;-69
2022/06/08 02:07:13;;;;;;;178.93;169.77;;;;;;;14.51;100.00;96396.13;5072765;28;20216;-69
2022/06/08 02:09:47;;;;;;;177.17;168.03;;;;;;;14.49;100.00;96394.78;5072657;28;20204;-70
2022/06/08 02:12:13;;;;;;;192.13;182.20;;;;;;;14.47;100.00;96389.78;5053384;28;20646;-70
2022/06/08 02:14:46;;;;;;;200.53;190.30;;;;;;;14.43;100.00;96386.06;5072773;28;20694;-70
2022/06/08 02:17:17;;;;;;;189.27;179.73;;;;;;;14.45;100.00;96388.44;5072495;28;20587;-70
2022/06/08 02:19:47;;;;;;;171.40;162.33;;;;;;;14.70;100.00;96388.50;5072560;28;20174;-69
2022/06/08 02:22:45;;;;;;;148.40;140.87;;;;;;;14.35;100.00;96389.19;5072346;28;20575;-70
2022/06/08 02:25:21;;;;;;;120.53;114.10;;;;;;;14.35;100.00;96380.50;5037423;28;20201;-70
2022/06/08 02:28:05;;;;;;;151.20;143.30;;;;;;;14.43;100.00;96382.66;5074571;28;20187;-70
2022/06/08 02:30:37;;;;;;;158.93;150.83;;;;;;;14.46;100.00;96375.00;5076632;28;20278;-70
2022/06/08 02:35:57;;;;;;;136.00;128.90;;;;;;;14.13;100.00;96370.94;5071348;28;20234;-70
2022/06/08 02:38:30;;;;;;;151.17;143.13;;;;;;;14.27;100.00;96373.06;5076139;28;20639;-70
2022/06/08 02:40:57;;;;;;;148.90;141.27;;;;;;;14.27;100.00;96370.44;5076482;28;20189;-69
2022/06/08 02:43:34;;;;;;;143.50;136.13;;;;;;;14.23;100.00;96372.00;5076437;28;20242;-70
2022/06/08 02:46:10;;;;;;;133.00;125.90;;;;;;;14.24;100.00;96369.13;5075977;28;20200;-70
2022/06/08 02:48:35;;;;;;;113.97;108.03;;;;;;;14.25;100.00;96365.44;5076252;28;20196;-70
2022/06/08 02:51:02;;;;;;;114.43;108.57;;;;;;;14.18;100.00;96380.69;5076004;28;20224;-70
2022/06/08 02:53:28;;;;;;;119.10;112.77;;;;;;;13.95;100.00;96367.97;5074749;28;20546;-70
2022/06/08 02:56:12;;;;;;;117.67;111.53;;;;;;;13.88;100.00;96373.47;5075589;28;20193;-70
2022/06/08 02:58:45;;;;;;;124.17;117.77;;;;;;;13.81;100.00;96367.66;5075700;28;20190;-70
2022/06/08 03:01:19;;;;;;;122.43;116.17;;;;;;;13.87;100.00;96363.19;5057591;28;20177;-69
2022/06/08 03:03:50;;;;;;;131.20;124.40;;;;;;;13.64;100.00;96352.03;5075636;28;20166;-70
2022/06/08 03:06:22;;;;;;;131.83;125.07;;;;;;;13.68;100.00;96362.84;5075568;28;20212;-70
2022/06/08 03:08:57;;;;;;;136.47;129.47;;;;;;;13.71;100.00;96357.84;5075699;28;20186;-70
2022/06/08 03:11:25;;;;;;;126.07;119.47;;;;;;;13.68;100.00;96345.22;5074752;28;20194;-70
2022/06/08 03:13:58;;;;;;;117.33;111.07;;;;;;;13.55;100.00;96345.66;5075457;28;20181;-70
2022/06/08 03:16:52;;;;;;;127.03;120.43;;;;;;;13.74;100.00;96346.03;5075687;28;20203;-70
2022/06/08 03:19:18;;;;;;;135.87;128.90;;;;;;;13.76;100.00;96337.88;5075264;28;20520;-70
2022/06/08 03:21:45;;;;;;;152.07;144.20;;;;;;;13.90;100.00;96338.97;5075120;28;20828;-70
2022/06/08 03:24:10;;;;;;;131.57;124.87;;;;;;;13.80;100.00;96337.09;5075483;28;20236;-70
2022/06/08 03:26:43;;;;;;;140.67;133.30;;;;;;;13.77;100.00;96339.44;5075299;28;20595;-69
2022/06/08 03:29:08;;;;;;;172.10;163.33;;;;;;;13.74;100.00;96341.53;5075279;28;20270;-70
2022/06/08 03:31:34;;;;;;;261.50;247.73;;;;;;;13.87;100.00;96334.22;5074207;28;20641;-69
2022/06/08 03:33:59;;;;;;;204.33;193.87;;;;;;;14.07;100.00;96335.06;5075024;28;20514;-70
2022/06/08 03:36:25;;;;;;;234.20;222.37;;;;;;;14.09;100.00;96338.25;5074905;28;20181;-70
2022/06/08 03:38:50;;;;;;;210.73;200.10;;;;;;;14.26;100.00;96337.25;5074134;28;20307;-70
2022/06/08 03:41:15;;;;;;;197.17;187.00;;;;;;;14.36;100.00;96339.91;5074565;28;20184;-70
2022/06/08 03:43:41;;;;;;;186.57;176.83;;;;;;;14.38;100.00;96345.72;5074999;28;20618;-69
2022/06/08 03:46:10;;;;;;;179.50;169.93;;;;;;;14.72;100.00;96341.53;5074579;28;20260;-70
2022/06/08 03:48:37;;;;;;;99.43;94.10;;;;;;;14.85;98.30;96340.22;5074899;28;20185;-70
2022/06/08 03:51:04;;;;;;;69.57;65.90;;;;;;;15.05;96.74;96332.28;5074938;28;20238;-69
2022/06/08 03:53:43;;;;;;;54.23;51.20;;;;;;;14.97;95.70;96340.75;5073104;28;20223;-70
2022/06/08 03:56:10;;;;;;;44.10;41.77;;;;;;;14.97;96.50;96331.00;5073978;28;20736;-70
2022/06/08 03:58:36;;;;;;;131.90;124.73;;;;;;;15.64;92.98;96334.31;5074703;28;20273;-70
2022/06/08 04:01:03;;;;;;;107.17;101.20;;;;;;;15.39;93.88;96338.56;5074339;28;20280;-70
2022/06/08 04:03:30;;;;;;;103.70;97.60;;;;;;;15.51;93.63;96335.66;5074135;28;20736;-70
2022/06/08 04:05:56;;;;;;;104.60;98.87;;;;;;;15.31;94.24;96336.50;5074283;28;20336;-70
2022/06/08 04:08:21;;;;;;;94.67;89.57;;;;;;;15.02;96.65;96338.09;5074578;28;20204;-69
2022/06/08 04:10:46;;;;;;;118.03;111.70;;;;;;;14.95;97.45;96334.94;5074296;28;20611;-69
2022/06/08 04:13:12;;;;;;;126.43;119.57;;;;;;;15.36;95.42;96339.13;5074081;28;20239;-70
2022/06/08 04:15:43;;;;;;;112.40;106.50;;;;;;;15.07;96.24;96340.75;5056282;28;20185;-69
2022/06/08 04:18:16;;;;;;;111.70;105.47;;;;;;;15.15;95.07;96345.50;5074140;28;20223;-70
2022/06/08 04:20:45;;;;;;;113.67;107.23;;;;;;;15.32;93.10;96339.94;5073445;28;20169;-70
2022/06/08 04:23:12;;;;;;;117.47;110.73;;;;;;;15.58;91.85;96333.53;5073918;28;20184;-70
2022/06/08 04:25:40;;;;;;;144.77;137.00;;;;;;;15.68;90.91;96345.94;5074200;28;20233;-70
2022/06/08 04:28:06;;;;;;;124.73;118.03;;;;;;;15.87;89.23;96340.84;5056028;28;20205;-70
2022/06/08 04:30:32;;;;;;;128.53;121.67;;;;;;;15.92;88.27;96333.69;5073950;28;20242;-69
2022/06/08 04:32:57;;;;;;;125.17;118.00;;;;;;;15.90;87.39;96345.59;5072942;28;20193;-69
2022/06/08 04:35:24;;;;;;;118.77;112.47;;;;;;;15.87;86.97;96341.66;5073811;28;20246;-69
2022/06/08 04:37:50;;;;;;;122.53;115.87;;;;;;;16.20;85.02;96340.16;5073312;28;20557;-70
2022/06/08 04:40:16;;;;;;;108.73;102.97;;;;;;;16.34;84.12;96335.84;5073457;28;20291;-70
2022/06/08 04:42:42;;;;;;;174.20;164.90;;;;;;;16.25;83.22;96332.19;5073074;28;20178;-69
2022/06/08 04:45:08;;;;;;;164.17;155.27;;;;;;;15.91;84.40;96328.66;5073355;28;20195;-70
2022/06/08 04:47:34;;;;;;;129.60;122.70;;;;;;;16.04;83.66;96323.59;5073686;28;20199;-70
2022/06/08 04:49:59;;;;;;;137.70;130.37;;;;;;;15.63;86.74;96324.81;5072759;28;20710;-70
2022/06/08 04:52:25;;;;;;;121.50;114.93;;;;;;;15.89;86.07;96315.72;5072764;28;20245;-70
2022/06/08 04:54:51;;;;;;;178.50;168.40;;;;;;;15.54;88.58;96329.06;5072373;28;20177;-69
2022/06/08 04:57:16;;;;;;;146.70;138.30;;;;;;;15.68;88.83;96324.78;5073561;28;20186;-70
2022/06/08 04:59:42;;;;;;;147.03;138.90;;;;;;;15.71;88.14;96319.78;5073367;28;20268;-70
2022/06/08 05:02:08;;;;;;;128.50;121.77;;;;;;;15.62;87.86;96324.00;5072899;28;20641;-70
2022/06/08 05:04:34;;;;;;;145.33;137.50;;;;;;;15.79;87.18;96319.19;5073598;28;20192;-69
2022/06/08 05:06:59;;;;;;;230.53;216.83;;;;;;;16.28;83.19;96317.63;5073287;28;20655;-68
2022/06/08 05:09:25;;;;;;;335.97;316.07;;;;;;;15.97;84.15;96325.72;5073077;28;20268;-69
2022/06/08 05:11:50;;;;;;;214.93;203.40;;;;;;;15.97;83.94;96332.88;5054816;28;20190;-70
2022/06/08 05:14:16;;;;;;;160.13;151.37;;;;;;;16.60;81.90;96342.59;5072950;28;20193;-69
2022/06/08 05:16:41;;;;;;;157.93;149.20;;;;;;;17.09;80.32;96344.31;5072911;28;20196;-69
2022/06/08 05:19:07;;;;;;;323.40;302.77;;;;;;;16.98;82.76;96348.94;5073281;28;20196;-69
2022/06/08 05:21:33;;;;;;;308.47;290.07;;;;;;;17.01;84.10;96347.56;5072789;28;20185;-70
2022/06/08 05:23:58;;;;;;;281.03;265.30;;;;;;;17.14;83.11;96341.63;5072930;28;20184;-69
2022/06/08 05:26:23;;;;;;;218.90;207.03;;;;;;;17.53;80.67;96341.53;5072887;28;20193;-70
2022/06/08 05:28:49;;;;;;;147.60;139.63;;;;;;;17.69;80.47;96334.22;5072310;28;20490;-70
2022/06/08 05:31:14;;;;;;;168.75;159.25;;;;;;;17.77;78.54;96337.03;5071377;28;20192;-70
2022/06/08 05:33:40;;;;;;;166.10;156.88;;;;;;;18.20;76.24;96339.69;5072624;28;20637;-70
2022/06/08 05:36:05;;;;;;;209.10;197.73;;;;;;;18.90;72.87;96335.22;5072965;28;20272;-69
2022/06/08 05:38:31;;;;;;;228.93;216.45;;;;;;;19.08;70.86;96333.63;5054362;28;20232;-71
2022/06/08 05:40:57;;;;;;;215.07;203.23;;;;;;;18.92;71.92;96334.94;5072903;28;20664;-70
2022/06/08 05:43:22;;;;;;;231.32;218.93;;;;;;;18.74;73.13;96333.91;5072761;28;20999;-70
2022/06/08 05:45:48;;;;;;;268.75;252.98;;;;;;;18.95;69.96;96324.53;5072520;28;20193;-69
2022/06/08 05:48:14;;;;;;;252.15;238.23;;;;;;;18.83;72.04;96329.53;5072589;28;20185;-69
2022/06/08 05:50:41;;;;;;;259.10;245.05;;;;;;;18.45;73.56;96326.06;5071984;28;20242;-69
2022/06/08 05:53:07;;;;;;;245.82;232.20;;;;;;;18.19;74.33;96330.16;5070669;28;20196;-70
2022/06/08 05:55:33;;;;;;;226.77;213.70;;;;;;;18.01;74.00;96325.59;5072105;28;20200;-68
2022/06/08 05:57:58;;;;;;;278.50;263.10;;;;;;;18.05;73.89;96326.63;5071979;28;20213;-68
2022/06/08 06:00:28;;;;;;;218.50;206.50;;;;;;;18.12;73.78;96329.69;5072852;28;20243;-69
2022/06/08 06:02:54;;;;;;;233.95;220.52;;;;;;;18.35;71.91;96334.16;5071855;28;20189;-69
2022/06/08 06:05:23;;;;;;;218.52;205.57;;;;;;;18.45;71.33;96328.72;5072012;28;20591;-69
2022/06/08 06:07:49;;;;;;;232.07;218.77;;;;;;;18.24;72.47;96319.47;5072329;28;20544;-69
2022/06/08 06:10:16;;;;;;;222.18;209.50;;;;;;;18.42;71.20;96321.34;5071965;28;20233;-69
2022/06/08 06:12:41;;;;;;;253.23;238.90;;;;;;;18.69;70.25;96313.53;5071538;28;20188;-69
2022/06/08 06:15:08;;;;;;;180.40;170.15;;;;;;;18.99;68.33;96319.44;5071472;28;20189;-69
2022/06/08 06:17:33;;;;;;;197.70;186.52;;;;;;;18.93;67.95;96317.94;5071902;28;20198;-69
2022/06/08 06:19:59;;;;;;;234.93;221.82;;;;;;;19.42;65.80;96307.50;5071600;28;20188;-69
2022/06/08 06:22:25;;;;;;;336.48;317.42;;;;;;;19.80;64.14;96308.13;5071374;28;20319;-69
2022/06/08 06:24:51;;;;;;;285.67;269.95;;;;;;;20.05;61.29;96298.06;5071377;28;20184;-70
2022/06/08 06:27:16;;;;;;;244.98;231.77;;;;;;;20.21;61.33;96307.28;5072019;28;20280;-69
2022/06/08 06:29:41;;;;;;;303.08;286.15;;;;;;;20.32;60.68;96301.47;5053620;28;20185;-69
2022/06/08 06:32:12;;;;;;;417.92;393.90;;;;;;;20.44;59.99;96308.13;5070905;28;20189;-69
2022/06/08 06:34:38;;;;;;;266.50;251.80;;;;;;;20.43;61.53;96311.88;5071486;28;20169;-68
2022/06/08 06:37:03;;;;;;;297.05;280.27;;;;;;;20.48;61.09;96295.78;5071702;28;20219;-69
2022/06/08 06:39:29;;;;;;;298.67;282.08;;;;;;;20.19;60.58;96299.59;5071201;28;20181;-68
2022/06/08 06:41:56;;;;;;;334.13;315.08;;;;;;;20.14;61.62;96299.69;5070586;28;20181;-68
2022/06/08 06:44:22;;;;;;;296.55;280.45;;;;;;;19.87;62.72;96297.09;5071330;28;20185;-68
2022/06/08 06:46:48;;;;;;;271.45;256.38;;;;;;;19.79;62.68;96298.56;5071307;28;20272;-68
2022/06/08 06:49:13;;;;;;;288.30;271.85;;;;;;;20.00;61.80;96295.50;5069037;28;20209;-68
2022/06/08 06:51:39;;;;;;;257.40;243.00;;;;;;;19.97;62.15;96288.88;5068971;28;20649;-69
2022/06/08 06:54:07;;;;;;;241.85;228.40;;;;;;;20.25;60.71;96289.63;5058297;28;20197;-68
2022/06/08 06:56:35;;;;;;;257.20;243.30;;;;;;;19.82;62.46;96297.97;5071139;28;20241;-69
2022/06/08 06:59:01;;;;;;;213.00;201.35;;;;;;;19.90;61.25;96293.81;5071139;28;20251;-70
2022/06/08 07:01:26;;;;;;;165.57;156.43;;;;;;;20.12;60.79;96296.53;5070710;28;20584;-69
2022/06/08 07:03:52;;;;;;;351.95;331.90;;;;;;;20.32;59.74;96288.16;5071177;28;20562;-69
2022/06/08 07:06:17;;;;;;;355.13;335.02;;;;;;;20.40;59.50;96291.16;5071278;28;20327;-69
2022/06/08 07:08:43;;;;;;;353.50;333.38;;;;;;;20.29;60.05;96288.72;5071592;28;20196;-69
2022/06/08 07:13:54;;;;;;;313.75;296.83;;;;;;;20.71;59.98;96287.53;5072954;28;20264;-71
2022/06/08 07:16:19;;;;;;;335.58;317.08;;;;;;;20.66;60.05;96289.50;5075423;28;20264;-69
2022/06/08 07:18:45;;;;;;;333.05;314.73;;;;;;;20.26;61.61;96280.56;5074842;28;20186;-69
2022/06/08 07:21:11;;;;;;;304.33;287.80;;;;;;;20.46;60.22;96274.78;5074896;28;20265;-69
2022/06/08 07:23:37;;;;;;;299.42;283.58;;;;;;;20.28;61.08;96273.06;5074956;28;20276;-69
2022/06/08 07:26:02;;;;;;;303.70;287.80;;;;;;;20.03;61.64;96269.06;5074253;28;20288;-69
2022/06/08 07:28:28;;;;;;;316.08;299.45;;;;;;;20.12;60.60;96269.13;5073942;28;20173;-69
2022/06/08 07:30:54;;;;;;;275.27;260.25;;;;;;;20.26;60.40;96270.69;5073974;28;20231;-69
2022/06/08 07:33:20;;;;;;;331.85;314.00;;;;;;;20.06;60.30;96273.03;5074409;28;20219;-69
2022/06/08 07:35:46;;;;;;;203.73;192.88;;;;;;;19.94;60.79;96265.56;5073885;28;20197;-70
2022/06/08 07:38:12;;;;;;;192.20;181.43;;;;;;;19.88;60.96;96262.22;5073049;28;20256;-69
2022/06/08 07:40:37;;;;;;;231.23;218.02;;;;;;;19.78;61.01;96270.38;5074585;28;20216;-69
2022/06/08 07:43:02;;;;;;;210.20;198.63;;;;;;;19.92;59.80;96255.22;5074203;28;20650;-69
2022/06/08 07:45:28;;;;;;;260.20;245.65;;;;;;;20.04;60.06;96244.03;5073911;28;20261;-69
2022/06/08 07:50:57;;;;;;;371.17;348.85;;;;;;;20.16;60.42;96246.19;4991664;28;20200;-69
2022/06/08 07:53:23;;;;;;;289.70;273.40;;;;;;;20.43;59.33;96240.78;4992319;28;20254;-69
2022/06/08 07:55:48;;;;;;;220.73;208.73;;;;;;;20.65;58.46;96235.47;5029735;28;20216;-69
2022/06/08 07:58:13;;;;;;;232.90;220.10;;;;;;;20.46;58.81;96234.84;5074176;28;20225;-69
2022/06/08 08:00:43;;;;;;;341.65;322.10;;;;;;;20.49;59.55;96231.59;5074617;28;20182;-69
2022/06/08 08:03:09;;;;;;;431.33;405.27;;;;;;;20.58;59.41;96231.63;5074573;28;20274;-69
2022/06/08 08:05:34;;;;;;;403.00;378.83;;;;;;;20.24;59.76;96224.94;5073965;28;20729;-69
2022/06/08 08:08:00;;;;;;;351.45;330.65;;;;;;;20.02;59.89;96224.13;5074039;28;20686;-69
2022/06/08 08:10:26;;;;;;;434.17;407.48;;;;;;;19.97;60.30;96226.91;5073771;28;20550;-69
2022/06/08 08:12:55;;;;;;;462.45;433.73;;;;;;;20.03;59.84;96215.88;5074313;28;20649;-69
2022/06/08 08:15:21;;;;;;;349.52;328.80;;;;;;;20.41;59.54;96221.66;5073636;28;20549;-69
2022/06/08 08:17:47;;;;;;;381.85;358.50;;;;;;;20.69;59.08;96224.97;5073722;28;20668;-69
2022/06/08 08:20:15;;;;;;;399.63;374.92;;;;;;;20.60;58.92;96213.50;5073935;28;20190;-69
2022/06/08 08:22:40;;;;;;;443.88;416.20;;;;;;;20.66;58.98;96215.72;5073754;28;20272;-69
2022/06/08 08:25:07;;;;;;;377.35;354.98;;;;;;;20.65;59.21;96218.69;5073051;28;20669;-69
2022/06/08 08:27:32;;;;;;;292.63;276.23;;;;;;;20.90;59.42;96222.59;5073168;28;20209;-69
2022/06/08 08:29:58;;;;;;;313.85;296.27;;;;;;;20.92;59.88;96213.19;5071910;28;20238;-69
2022/06/08 08:32:23;;;;;;;317.35;299.83;;;;;;;21.04;60.12;96204.63;5072689;28;20181;-69
2022/06/08 08:34:49;;;;;;;312.70;293.75;;;;;;;21.20;60.01;96210.38;5073256;28;20192;-69
2022/06/08 08:37:14;;;;;;;306.75;289.08;;;;;;;21.60;59.02;96197.78;5073213;28;20270;-69
2022/06/08 08:39:40;;;;;;;432.45;405.30;;;;;;;21.65;55.36;96200.31;5072501;28;20550;-69
2022/06/08 08:42:20;;;;;;;488.67;458.75;;;;;;;21.53;59.25;96206.22;5073272;28;20238;-69
2022/06/08 08:44:55;;;;;;;229.55;217.30;;;;;;;21.59;56.69;96210.31;5073532;28;20268;-69
2022/06/08 08:47:29;;;;;;;347.85;328.95;;;;;;;21.66;56.13;96201.88;5073582;28;20205;-70
2022/06/08 08:49:58;;;;;;;334.13;316.67;;;;;;;21.44;57.20;96197.44;5073600;28;20191;-69
2022/06/08 08:52:45;;;;;;;355.83;336.65;;;;;;;21.59;56.60;96197.00;5071321;28;20286;-69
2022/06/08 08:55:26;;;;;;;373.98;354.38;;;;;;;21.73;56.27;96197.66;5061417;28;20173;-69
2022/06/08 08:57:57;;;;;;;201.10;190.35;;;;;;;21.77;54.31;96184.47;5073058;28;20189;-69
2022/06/08 09:00:38;;;;;;;245.57;232.73;;;;;;;21.86;55.60;96187.91;5073778;28;20178;-69
2022/06/08 09:03:25;;;;;;;241.32;228.70;;;;;;;21.88;56.05;96175.06;5073179;28;20630;-69
2022/06/08 09:05:54;;;;;;;316.83;300.42;;;;;;;21.97;56.95;96179.31;5072795;28;20278;-70
2022/06/08 09:08:22;;;;;;;227.80;215.82;;;;;;;21.88;56.11;96178.53;5072642;28;20600;-71
2022/06/08 09:10:48;;;;;;;200.60;190.13;;;;;;;21.57;56.16;96167.97;5073778;28;20275;-69
2022/06/08 09:13:25;;;;;;;203.65;192.75;;;;;;;21.47;55.22;96168.25;5073293;28;20193;-70
2022/06/08 09:15:57;;;;;;;176.85;167.30;;;;;;;21.24;56.20;96169.44;5072850;28;20173;-70
2022/06/08 09:18:33;;;;;;;171.80;162.60;;;;;;;21.71;55.31;96175.03;5072673;28;20181;-71
2022/06/08 09:21:00;;;;;;;280.13;264.80;;;;;;;21.82;54.15;96162.97;5066051;28;20535;-70
2022/06/08 09:23:41;;;;;;;392.58;371.02;;;;;;;21.82;53.36;96162.97;5072635;28;20181;-71
2022/06/08 09:26:16;;;;;;;289.10;273.13;;;;;;;21.97;51.99;96160.66;5072281;28;20278;-70
2022/06/08 09:28:43;;;;;;;396.30;374.33;;;;;;;21.74;55.02;96153.06;5073395;28;20180;-70
2022/06/08 09:31:29;;;;;;;171.05;162.05;;;;;;;21.67;55.68;96152.75;5059572;28;20209;-70
2022/06/08 09:34:22;;;;;;;194.10;183.90;;;;;;;22.09;55.50;96138.66;5057264;28;20169;-70
2022/06/08 09:37:24;;;;;;;288.15;272.23;;;;;;;22.20;54.34;96144.47;5072080;28;20228;-69
2022/06/08 09:39:51;;;;;;;426.70;403.10;;;;;;;22.06;52.39;96125.97;5072080;28;20208;-70
2022/06/08 09:42:19;;;;;;;466.90;440.63;;;;;;;21.92;53.37;96125.28;5072597;28;20201;-71
2022/06/08 09:45:26;;;;;;;270.83;256.05;;;;;;;21.78;52.31;96130.03;5072296;28;20626;-70
2022/06/08 09:51:55;;;;;;;375.48;354.92;;;;;;;21.66;52.83;96113.84;5049645;28;20354;-70
2022/06/08 09:54:38;;;;;;;497.92;466.83;;;;;;;21.54;51.23;96112.59;5072729;28;20264;-70
2022/06/08 09:57:09;;;;;;;242.75;229.75;;;;;;;21.88;52.37;96109.13;5072458;28;20185;-70
2022/06/08 09:59:56;;;;;;;395.35;372.73;;;;;;;22.12;51.29;96103.34;5072034;28;20181;-70
2022/06/08 10:02:38;;;;;;;573.53;538.08;;;;;;;22.54;49.80;96107.00;5072153;28;20276;-70
2022/06/08 10:05:19;;;;;;;413.45;390.38;;;;;;;22.85;46.85;96100.63;5072195;28;20242;-71
2022/06/08 10:08:06;;;;;;;384.95;364.55;;;;;;;22.86;47.18;96096.84;5071980;28;20217;-70
2022/06/08 10:10:41;;;;;;;404.52;383.10;;;;;;;22.86;47.83;96099.50;5072544;28;20208;-70
2022/06/08 10:13:16;;;;;;;391.00;369.98;;;;;;;22.78;47.67;96098.47;5071966;28;20189;-70
2022/06/08 10:15:51;;;;;;;408.63;387.30;;;;;;;22.56;46.37;96091.44;5072091;28;20187;-71
2022/06/08 10:18:28;;;;;;;395.98;374.92;;;;;;;22.97;46.75;96090.81;5072068;28;20223;-70
2022/06/08 10:20:59;;;;;;;421.73;399.05;;;;;;;22.86;47.62;96094.16;5072130;28;20176;-70
2022/06/08 10:23:37;;;;;;;474.35;448.55;;;;;;;22.72;47.46;96083.72;5071812;28;20532;-70
2022/06/08 10:26:43;;;;;;;415.98;393.58;;;;;;;22.68;46.63;96077.41;5071983;28;20216;-70
2022/06/08 10:29:18;;;;;;;421.92;398.88;;;;;;;22.89;47.06;96080.97;5069691;28;20227;-71
2022/06/08 10:31:57;;;;;;;460.60;435.77;;;;;;;22.74;47.80;96070.78;5059228;28;20196;-70
2022/06/08 10:34:27;;;;;;;449.38;425.40;;;;;;;22.83;47.27;96066.22;5062663;28;20191;-71
2022/06/08 10:36:58;;;;;;;466.60;441.05;;;;;;;22.80;47.58;96064.94;5071648;28;20192;-70
2022/06/08 10:39:25;;;;;;;442.73;414.80;;;;;;;22.62;45.74;96058.09;5071832;28;20185;-69
2022/06/08 10:45:01;;;;;;;483.88;455.48;;;;;;;22.85;45.05;96042.59;5072079;28;20196;-70
2022/06/08 10:47:31;;;;;;;383.13;363.10;;;;;;;22.69;44.40;96052.25;5071884;28;20704;-70
2022/06/08 10:49:59;;;;;;;402.63;381.52;;;;;;;22.73;44.21;96037.19;5073315;28;20651;-70
2022/06/08 10:52:29;;;;;;;349.45;331.45;;;;;;;22.98;43.74;96040.81;5076072;28;20238;-70
2022/06/08 10:55:15;;;;;;;509.15;482.13;;;;;;;23.05;40.86;96041.09;5075701;28;20188;-71
2022/06/08 10:57:47;;;;;;;452.17;428.63;;;;;;;23.10;41.94;96036.34;5057271;28;20549;-70
2022/06/08 11:00:19;;;;;;;468.55;444.10;;;;;;;23.03;41.86;96035.28;5075465;28;20307;-70
2022/06/08 11:02:51;;;;;;;451.40;427.90;;;;;;;23.12;41.53;96026.09;5075821;28;20189;-70
2022/06/08 11:05:46;;;;;;;335.35;318.08;;;;;;;23.07;40.37;96020.91;5075780;28;20203;-69
2022/06/08 11:08:22;;;;;;;355.65;337.42;;;;;;;23.14;39.72;96023.09;5075259;28;20203;-70
2022/06/08 11:10:48;;;;;;;293.65;279.10;;;;;;;23.24;40.08;96030.72;5072320;28;20611;-70
2022/06/08 11:13:24;;;;;;;325.17;309.45;;;;;;;23.48;39.94;96017.50;5075220;28;20549;-70
2022/06/08 11:15:52;;;;;;;257.20;244.95;;;;;;;23.45;39.30;96015.47;5075445;28;20188;-72
2022/06/08 11:18:23;;;;;;;274.98;261.50;;;;;;;23.77;40.13;96021.97;5075157;28;20537;-70
2022/06/08 11:21:14;;;;;;;279.42;265.77;;;;;;;23.83;40.23;96022.56;5074976;28;20188;-70
2022/06/08 11:23:54;;;;;;;250.68;237.82;;;;;;;23.99;39.64;96008.22;5075279;28;20193;-70
2022/06/08 11:26:25;;;;;;;440.38;416.23;;;;;;;22.62;39.77;96002.00;5074653;28;20251;-70
2022/06/08 11:29:18;;;;;;;437.90;412.98;;;;;;;23.23;39.86;95997.09;5074890;28;20316;-70
2022/06/08 11:31:44;;;;;;;457.85;432.73;;;;;;;23.66;39.61;96012.00;5063056;28;20640;-70